This is the latest recevied weather packets stored in our database for station/object KC2TER. If no packets are shown the sender has not sent any weather packets the latest 10 day(s).
| Time | Temp. | Humidity | Pressure | Rain* | Wind** | Luminosity | Snow |
|---|---|---|---|---|---|---|---|
| 1778286086 | 12.78° C | 75% | 1011.9 hPa | 0 mm | - | 0 W/m² | - |
| 1778285784 | 12.78° C | 75% | 1011.7 hPa | 0 mm | - | 0 W/m² | - |
| 1778285479 | 12.78° C | 75% | 1011.7 hPa | 0 mm | - | 0 W/m² | - |
| 1778285178 | 12.78° C | 75% | 1011.9 hPa | 0 mm | - | 0 W/m² | - |
| 1778284874 | 12.78° C | 74% | 1011.6 hPa | 0 mm | - | 0 W/m² | - |
| 1778284572 | 13.33° C | 74% | 1011.6 hPa | 0 mm | - | 1 W/m² | - |
| 1778284268 | 13.33° C | 73% | 1011.6 hPa | 0 mm | - | 2 W/m² | - |
| 1778283965 | 13.33° C | 72% | 1011.5 hPa | 0 mm | - | 3 W/m² | - |
| 1778283661 | 13.33° C | 71% | 1011.5 hPa | 0 mm | - | 6 W/m² | - |
| 1778283361 | 13.89° C | 70% | 1011.6 hPa | 0 mm | - | 4 W/m² | - |
| 1778283058 | 13.89° C | 68% | 1011.2 hPa | 0 mm | - | 8 W/m² | - |
| 1778282755 | 13.89° C | 66% | 1011.3 hPa | 0 mm | - | 14 W/m² | - |
| 1778282452 | 14.44° C | 65% | 1011.3 hPa | 0 mm | - | 16 W/m² | - |
| 1778282149 | 15° C | 62% | 1011.2 hPa | 0 mm | - | 19 W/m² | - |
| 1778281846 | 15.56° C | 61% | 1011 hPa | 0 mm | - | 22 W/m² | - |
| 1778281543 | 16.67° C | 56% | 1011.1 hPa | 0 mm | - | 28 W/m² | - |
| 1778281239 | 17.78° C | 45% | 1011.1 hPa | 0 mm | - | 34 W/m² | - |
| 1778280937 | 17.78° C | 44% | 1011.1 hPa | 0 mm | - | 35 W/m² | - |
| 1778280634 | 18.33° C | 44% | 1011.3 hPa | 0 mm | - | 40 W/m² | - |
| 1778280331 | 18.33° C | 43% | 1011 hPa | 0 mm | - | 51 W/m² | - |
| 1778280028 | 18.33° C | 43% | 1011 hPa | 0 mm | - | 52 W/m² | - |
| 1778279726 | 18.33° C | 44% | 1010.9 hPa | 0 mm | - | 55 W/m² | - |
| 1778279423 | 18.33° C | 44% | 1010.9 hPa | 0 mm | - | 58 W/m² | - |
| 1778279121 | 18.33° C | 42% | 1011 hPa | 0 mm | - | 70 W/m² | - |
| 1778278817 | 18.89° C | 43% | 1010.7 hPa | 0 mm | - | 56 W/m² | - |
* Rain latest hour (hover to see other rain measurements)
** Current wind speed in m/s (hover to see current wind gust speed)